Ana Sayfa
METAR-TAF:

METAR-TAF

Havaalanları :

Nakhon Phanom, Tayland

Enlem: 17-23-02N, Boylam: 104-38-35E, yükseklik: 179 m

Güncel hava durumu gözlemi

Rapor saat 05:00 UTC de 1 saat ve 26 dakika önce yapıldı.
Rüzgar güneydoğudan 9 kt, doğu ve güney arasında değişken
Sıcaklık 27°C
Nem 45%
Basınç 1016 hPa
Görüş mesafesi 10 km veya daha fazla
4000 ft yükseklikte az bulutlu

METAR: VTUW 120500Z 13009KT 090V170 9999 FEW040 27/14 Q1016 NOSIG

Saat: 13:26 (06:26 UTC)

Tahmin

Rapor saat 05:00 UTC de 1 saat ve 26 dakika önce yapıldı.
Ayın 12'si saat 06 UTC'den ayın 13'si saat 06 UTC'ye kadar geçerli Tahmin
Rüzgar doğu/kuzeydoğudan 6 kt
Görüş mesafesi: 8000 m
Dönüşüyor
ayın 12'si saat 21 UTC'den ayın 12'si saat 23 UTC'ye kadar
Görüş mesafesi: 5000 m
Pus
Dönüşüyor
ayın 13'si saat 02 UTC'den ayın 13'si saat 04 UTC'ye kadar
Görüş mesafesi: 8000 m

TAF: VTUW 120500Z 1206/1306 07006KT 8000 NSC BECMG 1221/1223 5000 BR BECMG 1302/1304 8000 NSW

4.000'den fazla havaalanı için hava durumu gözlemleri ve tahminleri (METAR ve TAF raporları).

Kullanılabilir istasyonlar harita üzerinde sarı ve kırmızı noktalarla gösterilir.

İstasyonun adını görmek için fareyi noktanın üzerinde gezdirin.

Sonrasında hava gözlem ve tahminlerini görmek için tıklayın.

Haritayı değiştirmek için: yaklaştırmak için siyah artı işaretli yeşil düğmeye ve uzaklaştırmak için de eksi işaretli düğmeye hızla tıklayın; bitişik haritalar için yeşil okları kullanın.


METAR-TAF: